EB5EEV-5 Weather Reports


Display with metric or nautical units.
time (UTC)temp
F
wind
direction
speed
MPH
gust
MPH
rain 1hr
in
rain 24hr
in
rain mn
in
humidity
%
barometer
mb
20220706034218 75 180 2.0 4.0 0.00 0.00 0.00 9 1016.1
20220706033325 75 315 2.0 3.0 0.00 0.00 0.00 9 1016.0
20220706032357 76 270 2.0 3.0 0.00 0.00 0.00 9 1016.3
20220706031405 76 0 3.0 6.0 0.00 0.00 0.00 9 1016.0
20220706030433 76 0 0.0 3.0 0.00 0.00 0.00 9 1015.9
20220706025628 76 0 0.0 0.0 0.00 0.00 0.00 9 1015.9
20220706024758 76 270 2.0 3.0 0.00 0.00 0.00 9 1016.1
20220706023918 76 0 0.0 4.0 0.00 0.00 0.00 9 1016.2
20220706022928 76 315 3.0 6.0 0.00 0.00 0.00 9 1016.1
20220706021933 76 270 3.0 6.0 0.00 0.00 0.00 9 1016.2
20220706021133 76 270 3.0 4.0 0.00 0.00 0.00 9 1016.1
20220706020328 76 270 3.0 5.0 0.00 0.00 0.00 9 1016.5
20220706015418 77 270 1.0 3.0 0.00 0.00 0.00 9 1016.3
20220706014600 77 270 3.0 4.0 0.00 0.00 0.00 9 1016.8
20220706013618 77 270 2.0 4.0 0.00 0.00 0.00 9 1016.8
20220706012808 77 270 0.0 3.0 0.00 0.00 0.00 9 1016.4
20220706011948 77 0 0.0 0.0 0.00 0.00 0.00 9 1016.6
20220706011048 77 90 4.0 8.0 0.00 0.00 0.00 9 1016.6
20220706010234 77 0 2.0 3.0 0.00 0.00 0.00 9 1017.0
20220706005332 77 0 0.0 3.0 0.00 0.00 0.00 9 1017.3
20220706004530 77 0 0.0 1.0 0.00 0.00 0.00 9 1017.5
20220706003723 77 0 1.0 2.0 0.00 0.00 0.00 9 1017.7
20220706002838 77 0 0.0 0.0 0.00 0.00 0.00 9 1017.9
20220706002028 77 90 0.0 1.0 0.00 0.00 0.00 9 1017.9
20220706001110 77 0 1.0 3.0 0.00 0.00 0.00 9 1017.9
20220706000258 77 0 0.0 1.0 0.00 0.00 0.00 9 1017.7
20220705235322 77 45 1.0 2.0 0.00 0.00 0.00 9 1017.4
20220705234507 77 45 1.0 3.0 0.00 0.00 0.00 9 1017.6
20220705233541 77 0 1.0 4.0 0.00 0.00 0.00 9 1017.9
20220705232708 77 270 3.0 6.0 0.00 0.00 0.00 9 1017.9
20220705231738 77 45 2.0 4.0 0.00 0.00 0.00 9 1017.7
20220705230813 77 270 0.0 2.0 0.00 0.00 0.00 9 1018.3
20220705224028 77 0 0.0 3.0 0.00 0.00 0.00 9 1017.7
20220705223028 77 0 2.0 3.0 0.00 0.00 0.00 9 1017.3
20220705222106 77 270 3.0 5.0 0.00 0.00 0.00 9 1017.5
20220705221213 77 0 2.0 4.0 0.00 0.00 0.00 9 1017.5
20220705220357 77 0 1.0 3.0 0.00 0.00 0.00 9 1016.8
20220705215411 77 45 2.0 4.0 0.00 0.00 0.00 9 1017.5
20220705214514 77 315 3.0 5.0 0.00 0.00 0.00 9 1017.5
20220705213550 77 0 0.0 3.0 0.00 0.00 0.00 9 1017.4
20220705212723 77 0 3.0 6.0 0.00 0.00 0.00 8 1016.8
20220705211843 77 0 2.0 4.0 0.00 0.00 0.00 8 1017.2
20220705210908 77 270 4.0 7.0 0.00 0.00 0.00 8 1017.0
20220705205909 77 0 3.0 6.0 0.00 0.00 0.00 8 1016.8
20220705204938 77 45 1.0 3.0 0.00 0.00 0.00 8 1016.7
20220705204103 77 315 1.0 3.0 0.00 0.00 0.00 8 1016.6
20220705203147 78 0 2.0 4.0 0.00 0.00 0.00 8 1016.2
20220705202211 77 45 2.0 4.0 0.00 0.00 0.00 8 1016.3
20220705201243 77 0 0.0 0.0 0.00 0.00 0.00 8 1016.0
20220705200400 78 0 0.0 1.0 0.00 0.00 0.00 8 1016.1
20220705195548 78 0 0.0 0.0 0.00 0.00 0.00 8 1015.7
20220705194717 78 0 0.0 0.0 0.00 0.00 0.00 8 1015.6
20220705193753 78 45 1.0 3.0 0.00 0.00 0.00 8 1015.9
20220705192918 78 270 0.0 3.0 0.00 0.00 0.00 8 1015.6
20220705192048 78 45 3.0 6.0 0.00 0.00 0.00 8 1015.5
20220705191138 78 45 3.0 7.0 0.00 0.00 0.00 8 1016.1
20220705190227 78 0 1.0 3.0 0.00 0.00 0.00 8 1015.7
20220705185253 78 45 1.0 3.0 0.00 0.00 0.00 8 1015.8
20220705184322 78 0 3.0 7.0 0.00 0.00 0.00 8 1015.6
20220705183336 78 180 1.0 4.0 0.00 0.00 0.00 8 1015.8
20220705182343 78 0 0.0 4.0 0.00 0.00 0.00 8 1015.5
20220705181424 78 0 2.0 7.0 0.00 0.00 0.00 8 1015.6
20220705180428 78 0 0.0 3.0 0.00 0.00 0.00 8 1015.8
20220705175627 78 135 1.0 4.0 0.00 0.00 0.00 8 1015.4
20220705174708 78 45 3.0 5.0 0.00 0.00 0.00 8 1015.3
20220705173758 78 45 1.0 5.0 0.00 0.00 0.00 8 1015.2
20220705172939 78 45 2.0 3.0 0.00 0.00 0.00 8 1015.0
20220705172058 78 90 0.0 3.0 0.00 0.00 0.00 8 1014.9
20220705171133 78 0 0.0 0.0 0.00 0.00 0.00 8 1015.6
20220705170138 78 0 0.0 0.0 0.00 0.00 0.00 8 1015.0
20220705165313 78 0 3.0 5.0 0.00 0.00 0.00 8 1014.5
20220705164327 78 45 2.0 5.0 0.00 0.00 0.00 8 1015.0
20220705163429 78 180 2.0 4.0 0.00 0.00 0.00 8 1015.4
20220705162613 78 45 3.0 5.0 0.00 0.00 0.00 8 1015.7
20220705161656 78 0 3.0 6.0 0.00 0.00 0.00 8 1015.7
20220705160707 78 90 4.0 9.0 0.00 0.00 0.00 8 1015.4
20220705155832 78 0 4.0 6.0 0.00 0.00 0.00 8 1015.4
20220705154933 79 270 0.0 2.0 0.00 0.00 0.00 8 1016.1
20220705153936 79 45 2.0 4.0 0.00 0.00 0.00 8 1015.6
20220705153130 79 0 4.0 5.0 0.00 0.00 0.00 8 1015.7
20220705152222 79 45 1.0 2.0 0.00 0.00 0.00 8 1015.7
20220705151400 80 0 1.0 3.0 0.00 0.00 0.00 8 1015.7
20220705150415 80 315 2.0 3.0 0.00 0.00 0.00 8 1015.8
20220705145550 80 0 1.0 3.0 0.00 0.00 0.00 8 1015.9
20220705144642 81 90 2.0 5.0 0.00 0.00 0.00 8 1015.7
20220705143721 82 45 0.0 4.0 0.00 0.00 0.00 7 1016.1
20220705142733 81 90 0.0 2.0 0.00 0.00 0.00 7 1016.1
20220705141848 80 0 0.0 2.0 0.00 0.00 0.00 7 1016.2
20220705140958 79 45 3.0 4.0 0.00 0.00 0.00 7 1016.0
20220705140124 79 270 2.0 6.0 0.00 0.00 0.00 8 1016.2
20220705135151 78 0 2.0 5.0 0.00 0.00 0.00 8 1016.3
20220705134158 78 0 0.0 2.0 0.00 0.00 0.00 8 1016.7
20220705133228 78 270 0.0 2.0 0.00 0.00 0.00 8 1016.8
20220705132413 78 0 1.0 4.0 0.00 0.00 0.00 8 1017.1
20220705131518 78 90 3.0 6.0 0.00 0.00 0.00 8 1016.4
20220705130528 78 270 2.0 6.0 0.00 0.00 0.00 8 1016.8
20220705125706 78 0 0.0 2.0 0.00 0.00 0.00 8 1016.8
20220705124843 78 90 2.0 3.0 0.00 0.00 0.00 8 1017.1
20220705123943 78 0 3.0 6.0 0.00 0.00 0.00 8 1016.9
20220705123033 78 270 3.0 6.0 0.00 0.00 0.00 8 1016.5
20220705122113 78 0 4.0 6.0 0.00 0.00 0.00 8 1016.6
20220705121128 78 180 3.0 8.0 0.00 0.00 0.00 8 1016.8
20220705120307 78 0 3.0 8.0 0.00 0.00 0.00 8 1017.1
20220705115336 79 315 0.0 2.0 0.00 0.00 0.00 8 1017.2
20220705114523 79 135 2.0 8.0 0.00 0.00 0.00 8 1017.3
20220705113627 79 0 2.0 3.0 0.00 0.00 0.00 8 1017.4
20220705112720 79 0 4.0 7.0 0.00 0.00 0.00 8 1017.5
20220705111819 79 0 4.0 7.0 0.00 0.00 0.00 8 1017.5
20220705110933 79 45 3.0 9.0 0.00 0.00 0.00 7 1017.5
20220705110048 79 0 0.0 2.0 0.00 0.00 0.00 8 1017.6
20220705105440 79 0 3.0 5.0 0.00 0.00 0.00 8 1017.4
20220705104616 79 0 1.0 3.0 0.00 0.00 0.00 8 1017.4
20220705103815 79 90 0.0 3.0 0.00 0.00 0.00 7 1017.5
20220705102815 79 0 5.0 9.0 0.00 0.00 0.00 7 1017.2
20220705101915 79 135 3.0 5.0 0.00 0.00 0.00 7 1017.2
20220705101020 78 270 2.0 6.0 0.00 0.00 0.00 7 1017.3
20220705100133 79 0 4.0 8.0 0.00 0.00 0.00 7 1017.3
20220705095155 78 0 2.0 5.0 0.00 0.00 0.00 8 1017.3
20220705094210 79 315 2.0 5.0 0.00 0.00 0.00 8 1017.5
20220705093410 79 45 3.0 6.0 0.00 0.00 0.00 8 1017.4
20220705092425 78 270 2.0 4.0 0.00 0.00 0.00 8 1017.5
20220705091608 78 90 2.0 3.0 0.00 0.00 0.00 8 1017.5
20220705090602 77 0 2.0 3.0 0.00 0.00 0.00 8 1017.5
20220705085720 77 45 3.0 5.0 0.00 0.00 0.00 8 1017.2
20220705084755 77 0 3.0 7.0 0.00 0.00 0.00 8 1017.4
20220705083815 77 0 3.0 6.0 0.00 0.00 0.00 8 1017.1
20220705082950 77 0 3.0 7.0 0.00 0.00 0.00 8 1017.1
20220705082022 77 45 2.0 3.0 0.00 0.00 0.00 8 1016.9
20220705081148 77 315 3.0 8.0 0.00 0.00 0.00 8 1017.0
20220705075320 77 270 2.0 6.0 0.00 0.00 0.00 8 1016.9
20220705074510 77 0 3.0 6.0 0.00 0.00 0.00 8 1016.8
20220705073515 77 0 0.0 1.0 0.00 0.00 0.00 8 1017.0
20220705072535 78 0 1.0 3.0 0.00 0.00 0.00 8 1016.7
20220705071548 78 0 2.0 3.0 0.00 0.00 0.00 8 1016.7
20220705070745 78 45 3.0 6.0 0.00 0.00 0.00 8 1016.4
20220705065918 78 90 1.0 6.0 0.00 0.00 0.00 8 1016.6
20220705064950 78 0 1.0 3.0 0.00 0.00 0.00 8 1016.5
20220705064010 78 270 2.0 5.0 0.00 0.00 0.00 8 1016.4
20220705063059 77 270 3.0 4.0 0.00 0.00 0.00 8 1016.3
20220705062150 77 270 2.0 3.0 0.00 0.00 0.00 8 1016.5
20220705061155 77 315 1.0 3.0 0.00 0.00 0.00 8 1016.4
20220705060350 77 0 1.0 3.0 0.00 0.00 0.00 8 1016.4
20220705055538 77 270 2.0 3.0 0.00 0.00 0.00 8 1016.2
20220705054547 77 315 3.0 7.0 0.00 0.00 0.00 8 1016.0
20220705053650 77 0 3.0 6.0 0.00 0.00 0.00 8 1016.2
20220705052755 77 0 0.0 2.0 0.00 0.00 0.00 8 1016.1
20220705051858 77 0 0.0 0.0 0.00 0.00 0.00 8 1015.9
20220705051015 78 315 3.0 7.0 0.00 0.00 0.00 8 1015.9
20220705050156 77 0 1.0 2.0 0.00 0.00 0.00 8 1015.9
20220705045207 77 0 0.0 2.0 0.00 0.00 0.00 8 1015.9
20220705044215 77 0 2.0 3.0 0.00 0.00 0.00 8 1015.5
20220705043355 77 270 0.0 2.0 0.00 0.00 0.00 8 1015.7
20220705042515 77 270 3.0 4.0 0.00 0.00 0.00 8 1015.3
20220705041545 77 270 3.0 4.0 0.00 0.00 0.00 8 1015.2
20220705040655 77 0 0.0 2.0 0.00 0.00 0.00 8 1015.1
20220705035815 77 270 2.0 5.0 0.00 0.00 0.00 8 1015.0
20220705035006 77 270 3.0 5.0 0.00 0.00 0.00 8 1014.9